Time;durP1;ratioP1;P1;durP2;ratioP2;P2;SDS_P1;SDS_P2;PMS_P1;PMS_P2;Temp;Humidity;BMP_temperature;BMP_pressure;BME280_temperature;BME280_humidity;BME280_pressure;Samples;Min_cycle;Max_cycle;Signal;HPM_P1;HPM_P2
2023/06/01 00:02:04;;;;;;;15.13;6.43;;;11.10;97.40;;;;;;4924839;29;20046;-66
2023/06/01 00:04:29;;;;;;;14.88;6.68;;;11.10;97.70;;;;;;4935451;29;20051;-66
2023/06/01 00:06:56;;;;;;;15.53;6.57;;;11.00;98.00;;;;;;4939894;29;20062;-66
2023/06/01 00:09:21;;;;;;;13.18;7.20;;;11.00;97.60;;;;;;4922822;29;20043;-66
2023/06/01 00:11:47;;;;;;;16.67;6.80;;;11.00;98.10;;;;;;4939253;29;20562;-65
2023/06/01 00:14:13;;;;;;;13.47;7.20;;;11.00;97.80;;;;;;4929474;29;20047;-65
2023/06/01 00:16:39;;;;;;;18.43;7.53;;;11.00;97.80;;;;;;4921461;29;20040;-65
2023/06/01 00:19:04;;;;;;;14.87;7.03;;;11.00;97.80;;;;;;4935179;29;20047;-66
2023/06/01 00:21:32;;;;;;;15.83;7.13;;;11.00;98.70;;;;;;4932027;29;20487;-66
2023/06/01 00:23:58;;;;;;;18.88;7.03;;;11.00;98.30;;;;;;4948569;29;20051;-66
2023/06/01 00:26:25;;;;;;;11.52;6.78;;;11.00;98.50;;;;;;4950417;29;20054;-66
2023/06/01 00:28:51;;;;;;;13.30;6.60;;;11.00;98.40;;;;;;4919643;29;20487;-66
2023/06/01 00:31:17;;;;;;;20.57;7.03;;;11.00;98.60;;;;;;4932217;29;20047;-66
2023/06/01 00:33:42;;;;;;;11.27;6.17;;;11.00;98.80;;;;;;4945302;29;20042;-66
2023/06/01 00:36:08;;;;;;;12.90;5.03;;;11.00;98.60;;;;;;4932891;29;20059;-65
2023/06/01 00:38:34;;;;;;;12.17;5.60;;;11.00;98.00;;;;;;4932042;29;20066;-66
2023/06/01 00:40:59;;;;;;;9.87;5.10;;;11.00;97.70;;;;;;4915170;29;20518;-66
2023/06/01 00:43:25;;;;;;;13.80;4.63;;;11.00;97.40;;;;;;4928086;29;20049;-65
2023/06/01 00:45:51;;;;;;;12.83;4.57;;;10.90;97.50;;;;;;4947521;29;20066;-65
2023/06/01 00:48:17;;;;;;;10.70;4.90;;;10.90;97.40;;;;;;4943251;29;20047;-65
2023/06/01 00:50:43;;;;;;;13.35;5.93;;;10.80;97.80;;;;;;4940839;29;20145;-65
2023/06/01 00:53:16;;;;;;;11.60;4.40;;;10.80;97.80;;;;;;4942253;29;20079;-65
2023/06/01 00:55:42;;;;;;;12.75;4.82;;;10.90;97.50;;;;;;4954596;28;20293;-65
2023/06/01 00:58:07;;;;;;;11.77;4.43;;;10.90;97.70;;;;;;4939915;28;20043;-65
2023/06/01 01:00:33;;;;;;;11.00;4.57;;;10.90;97.10;;;;;;4915642;29;20054;-65
2023/06/01 01:03:07;;;;;;;11.60;5.00;;;10.80;97.70;;;;;;4924528;29;20046;-65
2023/06/01 01:05:34;;;;;;;11.05;4.20;;;10.80;97.60;;;;;;4929951;29;20098;-65
2023/06/01 01:08:30;;;;;;;11.65;4.82;;;10.80;97.50;;;;;;4933866;29;20133;-65
2023/06/01 01:11:07;;;;;;;9.00;4.43;;;10.80;98.00;;;;;;4930492;29;20126;-65
2023/06/01 01:13:42;;;;;;;14.40;5.15;;;10.80;98.10;;;;;;4930027;29;20059;-65
2023/06/01 01:16:18;;;;;;;;;;;10.80;98.20;;;;;;4937788;29;20522;-65
2023/06/01 01:19:00;;;;;;;9.40;5.53;;;10.70;98.20;;;;;;4945243;29;19930;-65
2023/06/01 01:21:38;;;;;;;14.55;6.30;;;10.70;98.60;;;;;;4931453;29;20043;-65
2023/06/01 01:24:36;;;;;;;13.50;5.57;;;10.80;98.30;;;;;;4939767;29;20114;-65
2023/06/01 01:27:08;;;;;;;12.00;5.43;;;10.80;98.40;;;;;;4943618;29;20141;-65
2023/06/01 01:29:37;;;;;;;13.77;5.28;;;10.80;98.20;;;;;;4947355;29;20055;-65
2023/06/01 01:32:04;;;;;;;13.65;5.30;;;10.80;98.50;;;;;;4930578;29;20067;-65
2023/06/01 01:34:31;;;;;;;13.93;5.20;;;10.80;98.40;;;;;;4929753;29;20042;-65
2023/06/01 01:36:58;;;;;;;17.08;6.10;;;10.80;98.50;;;;;;4915624;29;20043;-65
2023/06/01 01:39:24;;;;;;;13.90;5.50;;;10.80;99.00;;;;;;4940059;29;20047;-65
2023/06/01 01:41:49;;;;;;;16.37;5.03;;;10.80;99.10;;;;;;4930257;29;20388;-65
2023/06/01 01:44:17;;;;;;;16.40;5.63;;;10.80;98.40;;;;;;4930040;29;20107;-65
2023/06/01 01:47:09;;;;;;;15.48;6.68;;;10.90;98.90;;;;;;4920971;29;20043;-65
2023/06/01 01:49:42;;;;;;;12.32;5.47;;;10.90;99.00;;;;;;4930242;29;20127;-65
2023/06/01 01:52:16;;;;;;;14.43;6.28;;;10.90;99.00;;;;;;4937935;29;20265;-65
2023/06/01 01:54:45;;;;;;;18.38;6.88;;;10.90;99.40;;;;;;4931644;29;20042;-65
2023/06/01 01:57:14;;;;;;;14.27;6.55;;;10.90;99.30;;;;;;4956085;28;20047;-66
2023/06/01 01:59:42;;;;;;;12.55;6.10;;;10.90;98.80;;;;;;4929626;29;20048;-66
2023/06/01 02:02:07;;;;;;;11.35;5.88;;;10.90;98.20;;;;;;4939721;29;20055;-66
2023/06/01 02:04:38;;;;;;;15.90;6.93;;;10.80;97.80;;;;;;4935460;29;20499;-66
2023/06/01 02:07:05;;;;;;;16.67;6.82;;;10.80;98.30;;;;;;4934953;29;20047;-66
2023/06/01 02:09:30;;;;;;;15.05;6.35;;;10.80;98.40;;;;;;4932470;29;20097;-66
2023/06/01 02:11:56;;;;;;;12.40;5.77;;;10.80;98.20;;;;;;4949108;29;20134;-66
2023/06/01 02:14:22;;;;;;;13.13;5.63;;;10.80;97.70;;;;;;4933030;29;20056;-66
2023/06/01 02:16:48;;;;;;;14.00;5.37;;;10.70;97.80;;;;;;4934350;29;20168;-66
2023/06/01 02:19:15;;;;;;;18.87;6.43;;;10.70;97.60;;;;;;4939292;29;20221;-65
2023/06/01 02:21:42;;;;;;;13.68;5.78;;;10.70;98.00;;;;;;4948008;29;20051;-65
2023/06/01 02:24:08;;;;;;;15.65;6.22;;;10.70;97.70;;;;;;4932895;29;20048;-65
2023/06/01 02:26:35;;;;;;;15.65;7.18;;;10.70;98.00;;;;;;4934363;29;20039;-65
2023/06/01 02:29:05;;;;;;;12.38;6.35;;;10.70;97.90;;;;;;4934960;29;20052;-65
2023/06/01 02:31:32;;;;;;;13.10;5.82;;;10.70;98.30;;;;;;4934817;29;20437;-65
2023/06/01 02:33:59;;;;;;;13.52;6.15;;;10.70;97.90;;;;;;4922487;29;20381;-65
2023/06/01 02:36:28;;;;;;;19.85;5.18;;;10.80;97.50;;;;;;4933283;29;20407;-66
2023/06/01 02:38:57;;;;;;;12.38;4.88;;;10.80;97.40;;;;;;4934066;29;20050;-65
2023/06/01 02:41:23;;;;;;;14.02;5.45;;;10.70;97.80;;;;;;4936417;29;20115;-65
2023/06/01 02:43:52;;;;;;;13.10;5.38;;;10.80;98.10;;;;;;4950017;29;20051;-65
2023/06/01 02:46:18;;;;;;;11.98;5.70;;;10.80;97.90;;;;;;4944732;29;20050;-65
2023/06/01 02:48:45;;;;;;;15.57;5.30;;;10.80;98.00;;;;;;4929272;29;20261;-65
2023/06/01 02:51:11;;;;;;;11.23;5.30;;;10.80;98.00;;;;;;4931464;29;20622;-65
2023/06/01 02:53:40;;;;;;;12.45;4.38;;;10.70;97.40;;;;;;4935329;29;20035;-65
2023/06/01 02:56:05;;;;;;;9.90;4.45;;;10.70;97.10;;;;;;4930490;29;20091;-65
2023/06/01 02:58:31;;;;;;;11.20;4.30;;;10.70;96.70;;;;;;4940451;29;20054;-65
2023/06/01 03:00:59;;;;;;;13.53;4.83;;;10.70;96.40;;;;;;4946523;29;20120;-65
2023/06/01 03:03:26;;;;;;;10.45;4.72;;;10.70;96.70;;;;;;4943684;29;20051;-65
2023/06/01 03:05:52;;;;;;;9.65;4.25;;;10.70;96.70;;;;;;4946288;29;20054;-65
2023/06/01 03:08:18;;;;;;;12.80;4.13;;;10.70;97.00;;;;;;4939521;29;20130;-65
2023/06/01 03:10:44;;;;;;;11.90;3.90;;;10.70;97.10;;;;;;4932870;29;20206;-65
2023/06/01 03:13:10;;;;;;;9.63;4.10;;;10.70;96.80;;;;;;4933354;29;20052;-65
2023/06/01 03:15:37;;;;;;;9.43;4.43;;;10.70;96.70;;;;;;4950852;28;20048;-65
2023/06/01 03:18:03;;;;;;;8.98;3.97;;;10.70;96.70;;;;;;4938113;29;20035;-65
2023/06/01 03:20:29;;;;;;;10.98;4.88;;;10.70;96.50;;;;;;4943355;29;20044;-65
2023/06/01 03:22:55;;;;;;;12.20;4.00;;;10.70;96.80;;;;;;4932181;29;20056;-65
2023/06/01 03:25:21;;;;;;;9.97;4.27;;;10.70;97.30;;;;;;4943770;29;20043;-65
2023/06/01 03:27:46;;;;;;;8.60;4.20;;;10.80;97.00;;;;;;4940889;29;20039;-65
2023/06/01 03:30:13;;;;;;;12.67;4.07;;;10.70;97.20;;;;;;4931810;29;20115;-65
2023/06/01 03:32:40;;;;;;;11.15;4.10;;;10.80;97.20;;;;;;4940909;29;20043;-65
2023/06/01 03:35:07;;;;;;;9.07;3.72;;;10.80;97.20;;;;;;4931762;29;20051;-65
2023/06/01 03:37:38;;;;;;;9.75;3.75;;;10.80;97.30;;;;;;4939900;29;20055;-65
2023/06/01 03:40:10;;;;;;;13.13;3.65;;;10.80;97.00;;;;;;4931640;29;20047;-65
2023/06/01 03:42:44;;;;;;;9.85;4.20;;;10.80;96.90;;;;;;4930839;29;20077;-65
2023/06/01 03:45:11;;;;;;;10.15;3.45;;;10.80;96.90;;;;;;4916285;29;20047;-65
2023/06/01 03:47:38;;;;;;;10.23;3.55;;;10.90;97.00;;;;;;4931929;29;20079;-65
2023/06/01 03:50:08;;;;;;;11.95;4.18;;;10.90;96.90;;;;;;4933751;29;20054;-65
2023/06/01 03:52:34;;;;;;;8.95;3.90;;;10.90;97.00;;;;;;4932079;29;20507;-65
2023/06/01 03:55:02;;;;;;;9.88;3.45;;;10.90;96.70;;;;;;4931808;29;20073;-65
2023/06/01 03:57:28;;;;;;;9.10;3.35;;;10.90;96.70;;;;;;4935199;29;20043;-65
2023/06/01 03:59:53;;;;;;;7.27;2.80;;;10.90;96.30;;;;;;4945740;29;20813;-65
2023/06/01 04:02:19;;;;;;;12.17;2.90;;;10.90;96.00;;;;;;4927498;29;20058;-65
2023/06/01 04:04:46;;;;;;;12.13;3.67;;;10.90;95.80;;;;;;4936421;29;20499;-65
2023/06/01 04:07:18;;;;;;;7.50;3.30;;;10.90;96.20;;;;;;4935792;29;20130;-65
2023/06/01 04:09:45;;;;;;;9.10;3.38;;;10.90;96.10;;;;;;4937640;29;20041;-65
2023/06/01 04:12:12;;;;;;;11.05;3.65;;;10.90;96.20;;;;;;4926410;29;20056;-65
2023/06/01 04:14:38;;;;;;;9.18;3.50;;;11.00;96.20;;;;;;4932377;29;20055;-65
2023/06/01 04:17:04;;;;;;;7.33;3.20;;;11.00;96.50;;;;;;4935406;29;20141;-65
2023/06/01 04:19:30;;;;;;;9.50;3.72;;;11.00;96.60;;;;;;4931021;29;20412;-65
2023/06/01 04:21:59;;;;;;;14.20;4.37;;;11.00;96.70;;;;;;4930409;29;20055;-65
2023/06/01 04:24:24;;;;;;;11.48;3.83;;;11.10;96.80;;;;;;4955360;28;20051;-65
2023/06/01 04:26:50;;;;;;;11.60;4.00;;;11.10;96.70;;;;;;4938733;29;20395;-65
2023/06/01 04:29:19;;;;;;;7.73;3.70;;;11.10;96.80;;;;;;4945682;29;20123;-65
2023/06/01 04:31:45;;;;;;;12.63;4.47;;;11.10;96.80;;;;;;4916808;29;20110;-65
2023/06/01 04:34:12;;;;;;;7.90;3.38;;;11.10;97.20;;;;;;4938656;29;20130;-65
2023/06/01 04:36:39;;;;;;;11.07;3.90;;;11.10;96.70;;;;;;4934270;29;20043;-65
2023/06/01 04:39:08;;;;;;;9.15;3.40;;;11.10;96.80;;;;;;4939611;29;20074;-65
2023/06/01 04:41:35;;;;;;;12.07;4.15;;;11.10;96.30;;;;;;4931375;29;20043;-65
2023/06/01 04:44:05;;;;;;;11.13;3.83;;;11.20;96.00;;;;;;4933260;29;20527;-65
2023/06/01 04:46:31;;;;;;;8.07;3.45;;;11.20;95.90;;;;;;4930589;29;20051;-65
2023/06/01 04:48:58;;;;;;;10.80;3.97;;;11.20;95.90;;;;;;4934328;29;20043;-65
2023/06/01 04:51:24;;;;;;;10.48;3.80;;;11.20;96.00;;;;;;4933763;29;20043;-65
2023/06/01 04:53:51;;;;;;;9.23;3.63;;;11.30;95.90;;;;;;4937903;29;20392;-65
2023/06/01 04:56:24;;;;;;;9.27;2.90;;;11.30;95.50;;;;;;4913095;29;20102;-65
2023/06/01 04:58:51;;;;;;;11.77;3.53;;;11.30;94.80;;;;;;4940602;29;20287;-65
2023/06/01 05:01:17;;;;;;;9.80;3.78;;;11.40;94.30;;;;;;4927756;29;20369;-65
2023/06/01 05:03:46;;;;;;;7.80;3.08;;;11.40;93.50;;;;;;4933089;29;20373;-65
2023/06/01 05:06:13;;;;;;;8.13;3.00;;;11.40;93.20;;;;;;4927515;29;20043;-65
2023/06/01 05:08:42;;;;;;;5.03;2.30;;;11.40;92.90;;;;;;4913428;29;20050;-65
2023/06/01 05:11:09;;;;;;;9.63;2.75;;;11.40;92.60;;;;;;4925716;29;20043;-65
2023/06/01 05:13:39;;;;;;;8.75;3.05;;;11.40;92.60;;;;;;4945674;29;20055;-65
2023/06/01 05:16:06;;;;;;;10.07;3.00;;;11.40;92.60;;;;;;4931988;29;20047;-65
2023/06/01 05:18:32;;;;;;;8.68;3.40;;;11.40;92.70;;;;;;4959104;28;20297;-65
2023/06/01 05:20:58;;;;;;;7.55;3.20;;;11.40;92.80;;;;;;4926502;29;20043;-65
2023/06/01 05:23:25;;;;;;;8.55;3.42;;;11.40;93.10;;;;;;4942386;29;20081;-65
2023/06/01 05:25:52;;;;;;;9.17;3.47;;;11.50;93.40;;;;;;4929389;29;20053;-65
2023/06/01 05:28:20;;;;;;;8.80;3.33;;;11.50;93.40;;;;;;4931138;29;20661;-65
2023/06/01 05:30:46;;;;;;;8.77;4.03;;;11.50;93.50;;;;;;4914449;29;20283;-65
2023/06/01 05:33:12;;;;;;;9.00;3.40;;;11.60;93.40;;;;;;4937480;29;20047;-65
2023/06/01 05:35:38;;;;;;;7.37;3.13;;;11.60;93.40;;;;;;4931172;29;20042;-65
2023/06/01 05:38:03;;;;;;;9.10;3.53;;;11.60;93.00;;;;;;4913247;29;20032;-65
2023/06/01 05:40:29;;;;;;;12.63;3.40;;;11.70;92.50;;;;;;4928857;29;20484;-65
2023/06/01 05:42:55;;;;;;;10.10;3.60;;;11.70;92.50;;;;;;4929241;29;20050;-65
2023/06/01 05:45:21;;;;;;;15.77;3.73;;;11.70;92.20;;;;;;4920973;29;20110;-65
2023/06/01 05:47:47;;;;;;;8.37;3.43;;;11.70;92.20;;;;;;4936566;29;20122;-65
2023/06/01 05:50:12;;;;;;;11.80;3.80;;;11.80;92.40;;;;;;4952727;28;20138;-65
2023/06/01 05:52:39;;;;;;;9.00;3.67;;;11.80;92.20;;;;;;4937739;29;20571;-65
2023/06/01 05:55:05;;;;;;;10.20;3.07;;;11.90;91.70;;;;;;4944503;28;20518;-65
2023/06/01 05:57:31;;;;;;;7.87;2.97;;;11.90;91.40;;;;;;4940982;29;20620;-65
2023/06/01 05:59:56;;;;;;;10.60;3.73;;;11.90;90.80;;;;;;4942771;29;20341;-65
2023/06/01 06:02:22;;;;;;;10.20;3.17;;;11.90;90.50;;;;;;4951703;29;20050;-65
2023/06/01 06:04:48;;;;;;;9.60;3.53;;;12.00;90.40;;;;;;4948169;29;20491;-65
2023/06/01 06:07:14;;;;;;;9.00;3.47;;;12.00;90.00;;;;;;4936950;29;20042;-65
2023/06/01 06:09:40;;;;;;;9.03;3.47;;;12.00;89.90;;;;;;4940623;29;20119;-65
2023/06/01 06:12:06;;;;;;;9.27;3.57;;;12.00;90.10;;;;;;4921608;29;20063;-65
2023/06/01 06:14:32;;;;;;;8.37;3.53;;;12.10;90.10;;;;;;4936637;29;20311;-65
2023/06/01 06:16:58;;;;;;;8.87;3.50;;;12.10;89.50;;;;;;4931007;29;20292;-65
2023/06/01 06:19:24;;;;;;;11.07;3.40;;;12.20;89.60;;;;;;4930720;29;20465;-65
2023/06/01 06:21:49;;;;;;;8.23;3.30;;;12.20;89.30;;;;;;4936166;29;20046;-65
2023/06/01 06:24:15;;;;;;;10.90;3.73;;;12.20;89.40;;;;;;4941462;29;20518;-65
2023/06/01 06:26:41;;;;;;;5.87;3.20;;;12.30;89.60;;;;;;4935592;29;20053;-65
2023/06/01 06:29:07;;;;;;;9.40;3.60;;;12.30;89.30;;;;;;4940191;29;20167;-65
2023/06/01 06:31:33;;;;;;;10.80;3.80;;;12.30;88.70;;;;;;4935260;29;21394;-65
2023/06/01 06:33:59;;;;;;;12.13;3.97;;;12.30;88.50;;;;;;4938722;29;20043;-65
2023/06/01 06:36:25;;;;;;;8.53;3.83;;;12.30;88.80;;;;;;4937011;29;20202;-65
2023/06/01 06:38:51;;;;;;;9.40;3.70;;;12.30;89.10;;;;;;4936540;29;20287;-65
2023/06/01 06:41:16;;;;;;;10.87;3.47;;;12.30;88.90;;;;;;4943547;28;20051;-65
2023/06/01 06:43:42;;;;;;;8.53;3.70;;;12.40;89.00;;;;;;4936934;29;20276;-65
2023/06/01 06:46:08;;;;;;;10.13;4.03;;;12.40;88.90;;;;;;4936688;29;20075;-65
2023/06/01 06:48:34;;;;;;;11.00;3.73;;;12.50;88.80;;;;;;4939647;29;20535;-65
2023/06/01 06:51:01;;;;;;;7.07;3.17;;;12.50;88.50;;;;;;4928697;28;20056;-66
2023/06/01 06:53:27;;;;;;;7.40;2.80;;;12.50;87.20;;;;;;4951607;28;20286;-65
2023/06/01 06:55:53;;;;;;;8.53;3.40;;;12.50;87.70;;;;;;4923069;29;20315;-65
2023/06/01 06:58:18;;;;;;;7.53;2.93;;;12.60;87.90;;;;;;4952021;29;20043;-65
2023/06/01 07:00:44;;;;;;;9.57;3.13;;;12.70;87.50;;;;;;4920485;29;20588;-65
2023/06/01 07:03:10;;;;;;;10.20;3.30;;;12.70;87.30;;;;;;4919834;29;20039;-65
2023/06/01 07:05:36;;;;;;;11.57;3.33;;;12.80;87.80;;;;;;4938758;29;20091;-65
2023/06/01 07:08:02;;;;;;;5.07;2.33;;;12.80;87.50;;;;;;4918304;29;20323;-65
2023/06/01 07:10:27;;;;;;;10.30;3.10;;;12.90;87.20;;;;;;4930265;29;20043;-65
2023/06/01 07:12:53;;;;;;;7.20;3.07;;;12.90;86.40;;;;;;4917167;29;20131;-65
2023/06/01 07:15:19;;;;;;;9.33;2.70;;;12.90;86.40;;;;;;4938959;29;20562;-65
2023/06/01 07:17:44;;;;;;;7.50;2.23;;;12.90;87.10;;;;;;4933163;29;20047;-65
2023/06/01 07:20:11;;;;;;;6.60;2.20;;;13.00;87.10;;;;;;4935133;29;20043;-65
2023/06/01 07:22:40;;;;;;;7.90;2.20;;;13.00;86.80;;;;;;4942896;29;20122;-65
2023/06/01 07:25:07;;;;;;;7.67;2.83;;;12.90;86.80;;;;;;4937321;29;20288;-65
2023/06/01 07:27:35;;;;;;;7.00;1.83;;;12.90;86.90;;;;;;4941233;29;20282;-65
2023/06/01 07:30:07;;;;;;;6.60;2.37;;;13.00;87.30;;;;;;4936777;29;20304;-65
2023/06/01 07:32:33;;;;;;;6.47;2.47;;;13.00;87.20;;;;;;4932724;29;20370;-65
2023/06/01 07:34:59;;;;;;;6.73;2.27;;;12.90;87.00;;;;;;4932553;29;20378;-65
2023/06/01 07:37:26;;;;;;;6.43;2.20;;;12.90;86.90;;;;;;4932968;29;20043;-65
2023/06/01 07:39:53;;;;;;;6.77;2.10;;;13.00;87.20;;;;;;4932871;29;20483;-65
2023/06/01 07:42:20;;;;;;;5.70;1.90;;;13.00;87.00;;;;;;4934159;29;20779;-65
2023/06/01 07:44:46;;;;;;;5.83;1.97;;;13.00;87.00;;;;;;4932990;29;20330;-65
2023/06/01 07:47:12;;;;;;;6.47;2.03;;;13.10;87.10;;;;;;4916684;29;20319;-65
2023/06/01 07:49:37;;;;;;;7.57;2.20;;;13.10;86.90;;;;;;4934715;29;20503;-66
2023/06/01 07:52:04;;;;;;;6.57;1.97;;;13.10;87.20;;;;;;4918122;29;20095;-67
2023/06/01 07:54:31;;;;;;;5.60;2.17;;;13.10;87.60;;;;;;4933691;29;20131;-67
2023/06/01 07:56:57;;;;;;;5.80;2.67;;;13.20;87.60;;;;;;4933777;29;20298;-67
2023/06/01 07:59:27;;;;;;;8.03;2.50;;;13.20;88.10;;;;;;4933795;29;20287;-67
2023/06/01 08:01:55;;;;;;;4.37;1.77;;;13.20;89.00;;;;;;4918074;29;20291;-67
2023/06/01 08:04:20;;;;;;;5.73;1.40;;;13.00;91.00;;;;;;4933210;29;20291;-66
2023/06/01 08:06:47;;;;;;;5.30;1.93;;;12.90;93.60;;;;;;4933015;29;20710;-67
2023/06/01 08:09:16;;;;;;;7.70;1.80;;;12.90;93.60;;;;;;4931644;29;20062;-66
2023/06/01 08:11:41;;;;;;;3.97;1.60;;;12.90;93.60;;;;;;4933082;29;20292;-67
2023/06/01 08:14:08;;;;;;;5.60;1.80;;;13.00;93.30;;;;;;4949200;29;20089;-67
2023/06/01 08:16:34;;;;;;;3.57;1.57;;;13.10;93.80;;;;;;4938690;29;20504;-66
2023/06/01 08:19:00;;;;;;;5.83;1.27;;;13.10;93.20;;;;;;4934844;29;20303;-67
2023/06/01 08:21:26;;;;;;;3.37;1.50;;;13.30;92.70;;;;;;4932550;29;20647;-67
2023/06/01 08:23:55;;;;;;;5.10;1.60;;;13.50;91.10;;;;;;4932692;29;20071;-67
2023/06/01 08:26:22;;;;;;;5.53;1.67;;;13.50;90.30;;;;;;4937067;29;20636;-67
2023/06/01 08:28:51;;;;;;;5.23;1.90;;;13.50;89.50;;;;;;4927449;29;20307;-66
2023/06/01 08:31:19;;;;;;;7.70;2.43;;;13.50;89.90;;;;;;4936772;29;20298;-66
2023/06/01 08:33:45;;;;;;;7.70;2.33;;;13.40;90.10;;;;;;4932523;29;20284;-67
2023/06/01 08:36:11;;;;;;;5.93;2.40;;;13.30;89.90;;;;;;4936884;29;20284;-67
2023/06/01 08:38:37;;;;;;;10.00;2.40;;;13.20;90.10;;;;;;4932852;29;20533;-67
2023/06/01 08:41:24;;;;;;;9.43;2.80;;;13.10;90.20;;;;;;4934834;29;20561;-67
2023/06/01 08:44:03;;;;;;;11.30;2.80;;;13.10;90.50;;;;;;4934958;29;20047;-67
2023/06/01 08:46:34;;;;;;;13.83;3.50;;;13.10;91.30;;;;;;4934894;29;20786;-66
2023/06/01 08:49:07;;;;;;;8.30;3.03;;;13.10;92.10;;;;;;4935148;29;20299;-67
2023/06/01 08:51:36;;;;;;;10.03;3.00;;;13.00;91.00;;;;;;4935280;29;20294;-66
2023/06/01 08:54:03;;;;;;;13.97;3.17;;;13.00;90.10;;;;;;4919717;29;20416;-67
2023/06/01 08:56:29;;;;;;;11.83;2.90;;;13.00;90.00;;;;;;4932738;29;20354;-66
2023/06/01 08:58:56;;;;;;;8.70;2.87;;;13.10;88.80;;;;;;4917290;29;20292;-67
2023/06/01 09:01:23;;;;;;;7.17;2.47;;;13.20;88.40;;;;;;4932244;29;20117;-67
2023/06/01 09:03:52;;;;;;;9.50;3.27;;;13.20;86.70;;;;;;4931495;29;20354;-67
2023/06/01 09:06:19;;;;;;;11.03;3.83;;;13.30;87.20;;;;;;4921488;29;20435;-66
2023/06/01 09:08:45;;;;;;;8.07;2.97;;;13.50;85.90;;;;;;4930039;29;20370;-67
2023/06/01 09:11:11;;;;;;;11.33;2.97;;;13.60;85.00;;;;;;4931729;29;20306;-67
2023/06/01 09:13:38;;;;;;;10.67;3.20;;;13.70;84.90;;;;;;4933082;29;20299;-67
2023/06/01 09:16:05;;;;;;;14.13;3.20;;;13.70;85.40;;;;;;4935153;29;20040;-67
2023/06/01 09:18:32;;;;;;;11.10;3.40;;;13.80;84.10;;;;;;4933642;29;20297;-67
2023/06/01 09:21:12;;;;;;;11.33;3.27;;;13.80;83.80;;;;;;4931931;29;20283;-67
2023/06/01 09:23:38;;;;;;;10.33;3.20;;;13.80;84.00;;;;;;4943157;29;20786;-67
2023/06/01 09:26:07;;;;;;;10.77;2.77;;;13.90;84.20;;;;;;4934505;29;20310;-67
2023/06/01 09:28:55;;;;;;;8.73;2.63;;;13.90;83.70;;;;;;4941403;29;20307;-66
2023/06/01 09:31:40;;;;;;;8.43;3.30;;;13.90;83.50;;;;;;4933102;29;20360;-67
2023/06/01 09:34:11;;;;;;;13.57;3.67;;;13.90;83.60;;;;;;4923936;29;20292;-66
2023/06/01 09:36:37;;;;;;;12.37;3.40;;;13.90;84.10;;;;;;4930885;29;20139;-66
2023/06/01 09:39:15;;;;;;;10.70;2.67;;;13.90;83.90;;;;;;4932212;29;20284;-65
2023/06/01 09:41:55;;;;;;;11.07;3.00;;;13.90;84.00;;;;;;4931043;29;20827;-65
2023/06/01 09:44:29;;;;;;;11.43;2.90;;;13.90;83.40;;;;;;4930491;29;20345;-65
2023/06/01 09:47:07;;;;;;;7.82;2.55;;;14.00;83.40;;;;;;4930414;29;20692;-65
2023/06/01 09:49:37;;;;;;;6.93;2.87;;;14.00;82.60;;;;;;4930853;29;20099;-65
2023/06/01 09:52:06;;;;;;;12.07;3.00;;;14.00;83.00;;;;;;4931095;29;20314;-65
2023/06/01 09:54:34;;;;;;;10.77;2.60;;;14.10;82.80;;;;;;4932270;29;20796;-65
2023/06/01 09:57:02;;;;;;;6.13;2.73;;;14.10;82.20;;;;;;4930810;29;20330;-65
2023/06/01 09:59:29;;;;;;;8.60;3.00;;;14.10;81.90;;;;;;4916555;29;20347;-65
2023/06/01 10:01:57;;;;;;;8.50;2.70;;;14.10;82.50;;;;;;4915556;29;20305;-65
2023/06/01 10:04:26;;;;;;;10.03;3.20;;;14.20;82.20;;;;;;4930577;29;20375;-65
2023/06/01 10:06:54;;;;;;;10.10;3.07;;;14.30;81.80;;;;;;4931116;29;20330;-65
2023/06/01 10:09:22;;;;;;;8.43;2.73;;;14.30;82.20;;;;;;4929066;29;20875;-65
2023/06/01 10:11:49;;;;;;;10.27;3.10;;;14.30;81.90;;;;;;4931846;29;20355;-65
2023/06/01 10:14:16;;;;;;;13.47;3.67;;;14.40;81.20;;;;;;4931248;29;20280;-65
2023/06/01 10:16:45;;;;;;;10.17;2.73;;;14.30;81.80;;;;;;4935319;29;20288;-65
2023/06/01 10:19:12;;;;;;;11.57;3.27;;;14.30;82.70;;;;;;4933376;29;20647;-64
2023/06/01 10:21:39;;;;;;;13.43;2.90;;;14.40;82.50;;;;;;4931181;29;20291;-65
2023/06/01 10:24:07;;;;;;;6.50;2.67;;;14.50;82.20;;;;;;4932220;29;20315;-65
2023/06/01 10:27:05;;;;;;;13.73;3.27;;;14.60;81.60;;;;;;4930337;29;20296;-65
2023/06/01 10:29:32;;;;;;;12.43;3.63;;;14.60;80.90;;;;;;4920255;29;20318;-65
2023/06/01 10:31:57;;;;;;;11.07;3.77;;;14.60;80.50;;;;;;4931401;29;20288;-65
2023/06/01 10:34:42;;;;;;;13.20;3.60;;;14.60;80.60;;;;;;4933329;29;20755;-64
2023/06/01 10:37:08;;;;;;;16.10;3.35;;;14.40;81.20;;;;;;4924302;29;20103;-64
2023/06/01 10:39:35;;;;;;;10.13;2.67;;;14.30;81.90;;;;;;4933897;29;20043;-65
2023/06/01 10:42:12;;;;;;;8.10;2.80;;;14.40;82.00;;;;;;4935006;29;20497;-65
2023/06/01 10:44:41;;;;;;;10.00;2.70;;;14.50;81.00;;;;;;4931275;29;20660;-65
2023/06/01 10:47:13;;;;;;;11.93;3.33;;;14.50;81.40;;;;;;4933528;29;20362;-65
2023/06/01 10:49:50;;;;;;;6.87;2.60;;;14.50;80.80;;;;;;4917027;29;20304;-65
2023/06/01 10:52:29;;;;;;;5.97;2.30;;;14.60;80.80;;;;;;4933175;29;20290;-65
2023/06/01 10:55:10;;;;;;;8.80;2.77;;;14.60;81.30;;;;;;4926102;29;20291;-66
2023/06/01 10:57:37;;;;;;;8.60;2.53;;;14.70;81.00;;;;;;4933962;29;20288;-65
2023/06/01 11:00:16;;;;;;;9.07;2.60;;;14.80;80.00;;;;;;4932755;29;20338;-65
2023/06/01 11:02:57;;;;;;;7.67;2.80;;;14.80;80.30;;;;;;4932182;29;20283;-65
2023/06/01 11:05:48;;;;;;;9.30;2.67;;;15.00;80.60;;;;;;4929638;29;20283;-65
2023/06/01 11:08:20;;;;;;;7.20;2.97;;;15.10;79.90;;;;;;4925021;29;20283;-65
2023/06/01 11:10:52;;;;;;;8.43;3.03;;;15.30;80.10;;;;;;4946527;28;20287;-65
2023/06/01 11:13:19;;;;;;;9.57;2.70;;;15.40;79.80;;;;;;4931716;29;20649;-65
2023/06/01 11:16:04;;;;;;;7.77;2.57;;;15.40;78.50;;;;;;4933157;29;20816;-65
2023/06/01 11:18:43;;;;;;;6.33;2.33;;;15.40;77.70;;;;;;4935401;29;20370;-66
2023/06/01 11:21:21;;;;;;;10.13;2.30;;;15.40;78.20;;;;;;4934536;29;20353;-66
2023/06/01 11:23:47;;;;;;;7.03;2.83;;;15.40;77.40;;;;;;4931659;29;20287;-67
2023/06/01 11:26:18;;;;;;;7.93;3.13;;;15.40;77.50;;;;;;4934450;29;20667;-67
2023/06/01 11:28:45;;;;;;;8.63;2.73;;;15.30;78.10;;;;;;4932385;29;20559;-65
2023/06/01 11:31:13;;;;;;;8.37;2.80;;;15.40;78.80;;;;;;4931951;29;20326;-65
2023/06/01 11:33:42;;;;;;;9.77;2.80;;;15.50;78.40;;;;;;4918225;29;20280;-65
2023/06/01 11:36:10;;;;;;;8.03;2.70;;;15.50;77.20;;;;;;4935352;29;20319;-65
2023/06/01 11:38:41;;;;;;;8.57;2.90;;;15.50;76.90;;;;;;4932760;29;20326;-65
2023/06/01 11:41:08;;;;;;;11.43;2.43;;;15.30;77.00;;;;;;4931616;29;20286;-65
2023/06/01 11:43:35;;;;;;;8.93;2.63;;;15.30;77.30;;;;;;4932404;29;20326;-65
2023/06/01 11:46:07;;;;;;;8.33;2.67;;;15.20;77.30;;;;;;4934050;29;20358;-67
2023/06/01 11:48:34;;;;;;;7.43;2.00;;;15.20;78.00;;;;;;4936205;29;20665;-67
2023/06/01 11:51:01;;;;;;;6.40;1.87;;;15.10;78.00;;;;;;4937291;29;20820;-66
2023/06/01 11:53:29;;;;;;;10.73;2.67;;;15.00;77.50;;;;;;4935329;29;20275;-67
2023/06/01 11:55:55;;;;;;;6.13;2.30;;;14.90;78.30;;;;;;4935825;29;20835;-67
2023/06/01 11:58:30;;;;;;;8.70;2.13;;;14.90;78.10;;;;;;4935320;29;20282;-67
2023/06/01 12:00:57;;;;;;;;;;;14.90;78.10;;;;;;4937077;29;20047;-66
2023/06/01 12:03:24;;;;;;;10.53;2.60;;;14.90;77.40;;;;;;4935010;29;19969;-68
2023/06/01 12:05:50;;;;;;;10.20;2.50;;;14.90;76.40;;;;;;4935841;29;20288;-66
2023/06/01 12:08:21;;;;;;;6.93;2.10;;;14.90;76.10;;;;;;4934340;29;20283;-68
2023/06/01 12:10:52;;;;;;;5.53;1.83;;;14.90;76.50;;;;;;4932558;29;20298;-68
2023/06/01 12:13:19;;;;;;;4.47;1.70;;;15.00;76.30;;;;;;4939352;28;20296;-67
2023/06/01 12:15:46;;;;;;;6.93;1.67;;;15.10;75.60;;;;;;4935441;29;20291;-67
2023/06/01 12:18:32;;;;;;;8.23;1.50;;;15.20;73.90;;;;;;4934355;29;20279;-67
2023/06/01 12:20:58;;;;;;;4.80;1.67;;;15.20;73.90;;;;;;4934840;29;20291;-67
2023/06/01 12:23:24;;;;;;;7.50;1.57;;;15.20;73.90;;;;;;4933180;29;20651;-67
2023/06/01 12:25:50;;;;;;;6.67;1.53;;;15.20;73.00;;;;;;4932927;29;20040;-67
2023/06/01 12:28:17;;;;;;;5.87;2.03;;;15.10;73.30;;;;;;4933515;29;20082;-69
2023/06/01 12:30:44;;;;;;;5.27;1.50;;;15.00;73.50;;;;;;4932404;29;20283;-68
2023/06/01 12:33:33;;;;;;;6.20;1.60;;;15.00;73.80;;;;;;4932621;29;20676;-66
2023/06/01 12:36:00;;;;;;;6.40;1.87;;;14.90;74.20;;;;;;4933013;29;20855;-67
2023/06/01 12:38:27;;;;;;;8.90;1.80;;;14.80;74.30;;;;;;4933706;29;20283;-67
2023/06/01 12:41:09;;;;;;;4.37;1.60;;;14.80;74.30;;;;;;4933202;29;20345;-67
2023/06/01 12:43:36;;;;;;;5.00;1.50;;;14.90;74.20;;;;;;4940642;29;20645;-68
2023/06/01 12:46:05;;;;;;;8.87;1.90;;;14.90;74.10;;;;;;4918427;29;20331;-67
2023/06/01 12:48:36;;;;;;;7.40;1.50;;;15.00;73.20;;;;;;4934064;29;20315;-68
2023/06/01 12:51:02;;;;;;;7.87;1.87;;;15.10;73.60;;;;;;4933482;29;20286;-67